Time;durP1;ratioP1;P1;durP2;ratioP2;P2;SDS_P1;SDS_P2;PMS_P1;PMS_P2;Temp;Humidity;BMP_temperature;BMP_pressure;BME280_temperature;BME280_humidity;BME280_pressure;Samples;Min_cycle;Max_cycle;Signal;HPM_P1;HPM_P2
2022/03/12 00:00:00;;;;;;;9.30;5.57;;;6.40;65.50;;;;;;5074096;28;20053;-72
2022/03/12 00:02:29;;;;;;;10.52;6.05;;;6.40;65.50;;;;;;5074849;28;20036;-72
2022/03/12 00:04:56;;;;;;;9.15;5.45;;;6.40;65.60;;;;;;5073911;28;20052;-71
2022/03/12 00:07:27;;;;;;;10.07;6.20;;;6.40;65.70;;;;;;5074477;28;20605;-72
2022/03/12 00:09:54;;;;;;;13.70;6.18;;;6.40;66.00;;;;;;5075471;28;20125;-72
2022/03/12 00:12:22;;;;;;;11.15;5.78;;;6.40;66.10;;;;;;5074141;28;20052;-72
2022/03/12 00:14:49;;;;;;;9.40;5.90;;;6.30;66.30;;;;;;5074277;28;20053;-72
2022/03/12 00:17:18;;;;;;;10.73;5.45;;;6.30;66.50;;;;;;5073809;28;20132;-72
2022/03/12 00:19:46;;;;;;;9.25;5.28;;;6.30;66.30;;;;;;5075674;28;20098;-72
2022/03/12 00:22:13;;;;;;;14.00;5.93;;;6.30;66.20;;;;;;5075310;28;20069;-72
2022/03/12 00:24:42;;;;;;;9.38;5.75;;;6.30;66.20;;;;;;5073113;28;20056;-72
2022/03/12 00:27:09;;;;;;;10.60;5.93;;;6.30;66.30;;;;;;5074434;28;20122;-71
2022/03/12 00:29:36;;;;;;;10.65;6.20;;;6.20;66.20;;;;;;5075225;28;20541;-72
2022/03/12 00:32:06;;;;;;;12.77;6.50;;;6.30;66.40;;;;;;5073187;28;20048;-72
2022/03/12 00:34:34;;;;;;;8.05;5.07;;;6.30;66.50;;;;;;5074893;28;20052;-73
2022/03/12 00:37:01;;;;;;;9.60;5.90;;;6.20;66.30;;;;;;5075141;28;20060;-73
2022/03/12 00:39:29;;;;;;;9.82;5.70;;;6.30;66.20;;;;;;5074393;28;20365;-72
2022/03/12 00:41:57;;;;;;;14.45;5.88;;;6.20;67.00;;;;;;5075345;28;20044;-72
2022/03/12 00:44:24;;;;;;;15.15;6.47;;;6.20;67.30;;;;;;5073514;28;20056;-72
2022/03/12 00:46:51;;;;;;;8.35;5.90;;;6.20;66.20;;;;;;5073503;28;20052;-72
2022/03/12 00:49:18;;;;;;;10.75;5.93;;;6.20;66.40;;;;;;5072351;28;20102;-71
2022/03/12 00:51:45;;;;;;;9.23;5.47;;;6.20;66.70;;;;;;5075151;28;20078;-70
2022/03/12 00:54:12;;;;;;;13.32;6.57;;;6.20;66.80;;;;;;5073042;28;20055;-69
2022/03/12 00:56:39;;;;;;;9.90;5.32;;;6.20;66.80;;;;;;5073740;28;20059;-70
2022/03/12 00:59:08;;;;;;;9.98;5.40;;;6.20;67.30;;;;;;5072762;28;20048;-70
2022/03/12 01:01:35;;;;;;;15.10;5.97;;;6.10;67.00;;;;;;5074416;28;20053;-70
2022/03/12 01:04:02;;;;;;;11.40;6.00;;;6.10;66.90;;;;;;5072644;28;20109;-70
2022/03/12 01:06:29;;;;;;;11.50;6.10;;;6.10;66.70;;;;;;5072786;28;20083;-70
2022/03/12 01:08:56;;;;;;;8.82;5.82;;;6.10;66.80;;;;;;5073101;28;20044;-70
2022/03/12 01:11:23;;;;;;;10.70;6.07;;;6.10;67.30;;;;;;5073652;28;20048;-71
2022/03/12 01:13:50;;;;;;;10.95;6.10;;;6.10;67.30;;;;;;5072582;28;20637;-71
2022/03/12 01:16:19;;;;;;;8.27;6.32;;;6.10;68.00;;;;;;5074402;28;20060;-71
2022/03/12 01:18:46;;;;;;;12.40;5.22;;;6.20;67.50;;;;;;5072271;28;20139;-71
2022/03/12 01:21:16;;;;;;;9.95;6.25;;;6.00;67.80;;;;;;5072534;28;20049;-71
2022/03/12 01:23:43;;;;;;;10.27;5.55;;;6.00;67.70;;;;;;5073054;28;20056;-71
2022/03/12 01:26:12;;;;;;;12.45;5.95;;;6.00;68.00;;;;;;5072969;28;20045;-72
2022/03/12 01:28:39;;;;;;;9.27;5.80;;;6.00;67.70;;;;;;5071972;28;20056;-72
2022/03/12 01:31:06;;;;;;;10.55;6.70;;;6.00;67.40;;;;;;5074198;28;20044;-72
2022/03/12 01:33:34;;;;;;;9.48;6.03;;;6.00;67.60;;;;;;5073616;28;20557;-72
2022/03/12 01:36:02;;;;;;;8.68;5.72;;;5.90;68.00;;;;;;5072140;28;20048;-72
2022/03/12 01:38:31;;;;;;;9.95;6.13;;;6.20;68.30;;;;;;5072600;28;20442;-71
2022/03/12 01:41:03;;;;;;;8.52;5.72;;;5.90;68.20;;;;;;5072722;28;20492;-72
2022/03/12 01:43:32;;;;;;;12.18;6.15;;;5.90;68.50;;;;;;5072058;28;20056;-72
2022/03/12 01:46:00;;;;;;;9.48;5.70;;;5.90;69.10;;;;;;5073977;28;20207;-72
2022/03/12 01:48:28;;;;;;;14.88;5.55;;;5.90;68.30;;;;;;5071751;28;20047;-72
2022/03/12 01:50:57;;;;;;;10.07;5.65;;;5.90;68.90;;;;;;5072047;28;20055;-72
2022/03/12 01:53:26;;;;;;;11.07;6.03;;;5.80;68.50;;;;;;5072362;28;20105;-72
2022/03/12 01:55:54;;;;;;;9.30;6.00;;;5.80;68.30;;;;;;5071786;28;20163;-72
2022/03/12 01:58:21;;;;;;;12.52;5.63;;;5.80;68.00;;;;;;5072202;28;20044;-72
2022/03/12 02:00:50;;;;;;;18.75;6.93;;;5.80;68.10;;;;;;5073317;28;20181;-72
2022/03/12 02:03:21;;;;;;;10.48;6.00;;;5.90;67.90;;;;;;5070496;28;20408;-71
2022/03/12 02:05:48;;;;;;;11.82;7.05;;;5.80;67.90;;;;;;5072770;28;20396;-70
2022/03/12 02:08:17;;;;;;;8.30;5.57;;;5.80;68.00;;;;;;5072000;28;20102;-71
2022/03/12 02:10:45;;;;;;;9.10;5.78;;;5.80;68.30;;;;;;5071471;28;20056;-71
2022/03/12 02:13:13;;;;;;;11.43;6.38;;;5.80;68.40;;;;;;5072070;28;20060;-71
2022/03/12 02:15:41;;;;;;;11.35;6.15;;;5.80;68.60;;;;;;5072051;28;20051;-72
2022/03/12 02:18:08;;;;;;;9.23;5.95;;;5.70;68.60;;;;;;5070578;28;20059;-72
2022/03/12 02:20:35;;;;;;;9.90;6.22;;;5.70;68.80;;;;;;5071314;28;20051;-72
2022/03/12 02:23:02;;;;;;;9.82;6.10;;;5.70;69.10;;;;;;5071962;28;20099;-72
2022/03/12 02:25:31;;;;;;;9.50;5.80;;;5.70;68.90;;;;;;5071196;28;20098;-72
2022/03/12 02:28:00;;;;;;;13.43;6.85;;;5.70;69.10;;;;;;5071225;28;20044;-72
2022/03/12 02:30:32;;;;;;;9.38;5.85;;;5.70;69.30;;;;;;5072908;28;20041;-72
2022/03/12 02:33:01;;;;;;;11.73;6.55;;;5.70;69.30;;;;;;5071452;28;20400;-72
2022/03/12 02:35:34;;;;;;;10.80;6.30;;;5.70;69.20;;;;;;5071892;28;20058;-72
2022/03/12 02:38:01;;;;;;;10.90;6.50;;;5.70;69.00;;;;;;5071010;28;20053;-72
2022/03/12 02:40:30;;;;;;;12.73;6.30;;;5.70;69.40;;;;;;5072839;28;20059;-72
2022/03/12 02:42:58;;;;;;;10.45;6.30;;;5.70;69.10;;;;;;5070890;28;20094;-72
2022/03/12 02:45:27;;;;;;;10.80;6.57;;;5.70;69.00;;;;;;5071061;28;20057;-72
2022/03/12 02:47:55;;;;;;;10.25;6.05;;;5.70;69.00;;;;;;5072800;28;20053;-72
2022/03/12 02:50:23;;;;;;;11.23;6.40;;;5.70;69.20;;;;;;5071837;28;20059;-66
2022/03/12 02:52:50;;;;;;;9.93;6.18;;;5.70;69.40;;;;;;5070935;28;20056;-67
2022/03/12 02:55:19;;;;;;;13.60;6.25;;;5.70;69.20;;;;;;5071578;28;20458;-67
2022/03/12 02:57:48;;;;;;;12.55;5.88;;;5.70;69.30;;;;;;5070432;28;20076;-67
2022/03/12 03:00:16;;;;;;;9.23;5.95;;;5.70;69.60;;;;;;5068564;28;20175;-67
2022/03/12 03:02:47;;;;;;;9.25;6.00;;;5.70;69.20;;;;;;5072707;28;20049;-66
2022/03/12 03:05:23;;;;;;;10.48;6.78;;;5.70;69.10;;;;;;5071244;28;20527;-67
2022/03/12 03:07:55;;;;;;;8.55;6.45;;;5.70;69.20;;;;;;5070774;28;20052;-66
2022/03/12 03:10:31;;;;;;;10.20;6.45;;;5.70;69.40;;;;;;5072719;28;20102;-66
2022/03/12 03:13:05;;;;;;;8.70;6.13;;;5.80;69.50;;;;;;5073082;28;20484;-67
2022/03/12 03:15:32;;;;;;;8.88;6.03;;;5.80;69.10;;;;;;5055356;28;20045;-67
2022/03/12 03:18:05;;;;;;;11.73;6.70;;;5.70;69.30;;;;;;5056438;28;20084;-67
2022/03/12 03:20:33;;;;;;;10.40;5.75;;;5.70;69.40;;;;;;5054688;28;20055;-67
2022/03/12 03:23:00;;;;;;;11.85;6.22;;;5.70;69.20;;;;;;5055531;28;20088;-67
2022/03/12 03:25:27;;;;;;;10.00;5.97;;;5.80;69.50;;;;;;5055158;28;20053;-67
2022/03/12 03:27:53;;;;;;;9.00;5.95;;;5.70;69.20;;;;;;5060915;28;20052;-68
2022/03/12 03:30:22;;;;;;;9.85;6.05;;;5.70;69.30;;;;;;5076378;28;20446;-66
2022/03/12 03:32:48;;;;;;;12.18;6.25;;;5.80;69.60;;;;;;5075282;28;20052;-66
2022/03/12 03:35:16;;;;;;;9.25;6.38;;;5.80;69.10;;;;;;5075271;28;20060;-67
2022/03/12 03:37:43;;;;;;;9.57;6.10;;;5.80;69.10;;;;;;5076059;28;20052;-67
2022/03/12 03:40:11;;;;;;;9.27;6.95;;;5.80;69.20;;;;;;5074799;28;20044;-67
2022/03/12 03:42:38;;;;;;;9.60;5.97;;;5.80;69.40;;;;;;5074332;28;20059;-66
2022/03/12 03:45:06;;;;;;;8.45;5.95;;;5.70;69.10;;;;;;5075072;28;20465;-67
2022/03/12 03:47:34;;;;;;;12.25;5.80;;;5.70;69.10;;;;;;5074724;28;20048;-67
2022/03/12 03:50:01;;;;;;;11.95;6.35;;;5.70;69.00;;;;;;5073827;28;20052;-66
2022/03/12 03:52:28;;;;;;;11.15;6.25;;;5.80;69.20;;;;;;5075040;28;20084;-67
2022/03/12 03:54:55;;;;;;;11.18;6.47;;;5.70;69.10;;;;;;5074897;28;20044;-67
2022/03/12 03:57:21;;;;;;;10.65;5.72;;;5.80;69.30;;;;;;5074724;28;20052;-67
2022/03/12 03:59:48;;;;;;;8.65;6.22;;;5.70;69.20;;;;;;5074311;28;20047;-67
2022/03/12 04:02:16;;;;;;;10.15;6.60;;;5.70;70.00;;;;;;5074276;28;20056;-67
2022/03/12 04:04:48;;;;;;;10.52;6.15;;;5.70;69.50;;;;;;5075595;28;20052;-68
2022/03/12 04:07:15;;;;;;;15.43;6.93;;;5.60;69.50;;;;;;5075999;28;20107;-67
2022/03/12 04:09:42;;;;;;;11.95;6.53;;;5.60;69.70;;;;;;5074823;28;20062;-68
2022/03/12 04:12:10;;;;;;;9.65;5.97;;;5.60;69.50;;;;;;5074153;28;20105;-67
2022/03/12 04:14:36;;;;;;;9.38;5.85;;;5.60;69.50;;;;;;5074328;28;20118;-67
2022/03/12 04:17:05;;;;;;;9.05;5.93;;;5.60;69.60;;;;;;5074476;28;20041;-68
2022/03/12 04:19:34;;;;;;;11.27;6.60;;;5.60;69.60;;;;;;5073867;28;20127;-68
2022/03/12 04:22:03;;;;;;;13.27;6.75;;;5.50;69.50;;;;;;5074543;28;20051;-68
2022/03/12 04:24:30;;;;;;;13.20;6.88;;;5.50;69.50;;;;;;5073183;28;20139;-68
2022/03/12 04:26:56;;;;;;;10.30;6.35;;;5.50;69.70;;;;;;5074191;28;20507;-67
2022/03/12 04:29:23;;;;;;;11.82;6.60;;;5.50;69.90;;;;;;5074132;28;20105;-67
2022/03/12 04:31:50;;;;;;;9.18;6.03;;;5.40;69.90;;;;;;5073571;28;20056;-67
2022/03/12 04:34:17;;;;;;;10.02;6.18;;;5.40;70.00;;;;;;5075335;28;20060;-67
2022/03/12 04:36:45;;;;;;;9.98;6.07;;;5.40;70.40;;;;;;5073640;28;20382;-67
2022/03/12 04:39:13;;;;;;;10.45;6.15;;;5.40;69.90;;;;;;5073348;28;20094;-67
2022/03/12 04:41:40;;;;;;;10.38;6.32;;;5.40;69.80;;;;;;5075020;28;20135;-67
2022/03/12 04:44:08;;;;;;;9.80;6.03;;;5.40;69.80;;;;;;5073936;28;20105;-66
2022/03/12 04:46:36;;;;;;;10.57;6.28;;;5.40;70.00;;;;;;5073256;28;20125;-66
2022/03/12 04:49:04;;;;;;;9.73;6.40;;;5.40;70.10;;;;;;5073124;28;20049;-66
2022/03/12 04:51:31;;;;;;;9.25;5.90;;;5.40;70.20;;;;;;5073576;28;20488;-66
2022/03/12 04:54:00;;;;;;;9.98;5.78;;;5.30;70.20;;;;;;5075020;28;20048;-66
2022/03/12 04:56:28;;;;;;;8.23;6.05;;;5.30;70.20;;;;;;5072864;28;20519;-66
2022/03/12 04:58:56;;;;;;;10.68;5.50;;;5.30;70.30;;;;;;5072815;28;20090;-66
2022/03/12 05:01:23;;;;;;;11.07;6.20;;;5.30;70.20;;;;;;5074904;28;20056;-67
2022/03/12 05:03:50;;;;;;;8.98;5.70;;;5.30;70.40;;;;;;5073312;28;20106;-67
2022/03/12 05:06:18;;;;;;;9.38;5.57;;;5.30;70.30;;;;;;5072652;28;20567;-68
2022/03/12 05:08:46;;;;;;;7.75;5.55;;;5.30;70.50;;;;;;5073099;28;20167;-67
2022/03/12 05:11:13;;;;;;;9.20;5.95;;;5.30;70.60;;;;;;5074211;28;20137;-67
2022/03/12 05:13:41;;;;;;;11.45;6.30;;;5.30;70.30;;;;;;5072913;28;20106;-67
2022/03/12 05:16:08;;;;;;;10.80;6.43;;;5.30;70.50;;;;;;5073227;28;20052;-67
2022/03/12 05:18:36;;;;;;;11.10;6.32;;;5.30;70.30;;;;;;5072909;28;20064;-66
2022/03/12 05:21:05;;;;;;;10.88;5.60;;;5.30;70.20;;;;;;5071835;28;20102;-67
2022/03/12 05:23:31;;;;;;;9.85;6.28;;;5.40;70.10;;;;;;5073208;28;20495;-69
2022/03/12 05:25:58;;;;;;;10.20;5.75;;;5.40;69.90;;;;;;5074116;28;20048;-68
2022/03/12 05:28:32;;;;;;;9.63;5.75;;;5.50;69.80;;;;;;5073585;28;20048;-68
2022/03/12 05:31:04;;;;;;;13.23;6.15;;;5.40;69.60;;;;;;5073930;28;20448;-67
2022/03/12 05:33:32;;;;;;;8.27;5.28;;;5.40;69.70;;;;;;5073059;28;20048;-67
2022/03/12 05:35:58;;;;;;;8.45;5.97;;;5.40;69.60;;;;;;5072189;28;20041;-66
2022/03/12 05:38:27;;;;;;;9.05;5.80;;;5.50;69.80;;;;;;5072702;28;20049;-66
2022/03/12 05:40:55;;;;;;;11.98;6.00;;;5.40;70.10;;;;;;5071874;28;20408;-67
2022/03/12 05:43:21;;;;;;;9.50;5.75;;;5.40;69.60;;;;;;5073878;28;20060;-66
2022/03/12 05:45:50;;;;;;;8.48;6.03;;;5.40;69.60;;;;;;5072455;28;20050;-66
2022/03/12 05:48:19;;;;;;;8.65;5.60;;;5.40;69.60;;;;;;5073067;28;20079;-66
2022/03/12 05:50:47;;;;;;;10.63;5.97;;;5.40;69.80;;;;;;5073079;28;20450;-67
2022/03/12 05:53:19;;;;;;;9.18;5.43;;;5.40;69.70;;;;;;5072552;28;20125;-67
2022/03/12 05:55:46;;;;;;;7.85;5.47;;;5.40;69.90;;;;;;5072874;28;20150;-66
2022/03/12 05:58:15;;;;;;;9.98;5.50;;;5.40;69.70;;;;;;5073270;28;20052;-66
2022/03/12 06:00:42;;;;;;;10.27;5.45;;;5.50;69.80;;;;;;5072010;28;20106;-65
2022/03/12 06:03:10;;;;;;;9.60;5.85;;;5.50;69.80;;;;;;5071495;28;20114;-68
2022/03/12 06:05:40;;;;;;;8.90;5.03;;;5.50;69.90;;;;;;5071887;28;20048;-67
2022/03/12 06:08:07;;;;;;;7.97;5.20;;;5.50;70.00;;;;;;5071771;28;20144;-67
2022/03/12 06:10:35;;;;;;;8.23;5.40;;;5.90;70.10;;;;;;5072491;28;20045;-67
2022/03/12 06:13:08;;;;;;;10.93;6.45;;;5.50;69.80;;;;;;5073205;28;20055;-67
2022/03/12 06:15:41;;;;;;;11.77;6.07;;;5.50;69.90;;;;;;5072051;28;20048;-67
2022/03/12 06:18:08;;;;;;;9.57;5.60;;;5.50;69.80;;;;;;5071427;28;20145;-67
2022/03/12 06:20:37;;;;;;;9.98;6.55;;;5.40;70.10;;;;;;5071172;28;20090;-67
2022/03/12 06:23:06;;;;;;;14.40;6.13;;;5.50;69.80;;;;;;5072648;28;20094;-68
2022/03/12 06:25:34;;;;;;;12.10;5.82;;;5.50;69.90;;;;;;5072642;28;20060;-67
2022/03/12 06:28:02;;;;;;;9.25;5.53;;;5.40;69.90;;;;;;5071755;28;20401;-67
2022/03/12 06:30:29;;;;;;;9.15;5.95;;;5.40;69.80;;;;;;5071311;28;20051;-67
2022/03/12 06:32:58;;;;;;;10.68;6.22;;;5.40;69.80;;;;;;5071975;28;20511;-67
2022/03/12 06:35:26;;;;;;;12.50;5.55;;;5.40;70.10;;;;;;5072043;28;20447;-67
2022/03/12 06:37:55;;;;;;;9.57;5.45;;;5.40;70.10;;;;;;5070928;28;20060;-67
2022/03/12 06:40:28;;;;;;;10.70;6.10;;;5.40;69.60;;;;;;5071077;28;20071;-67
2022/03/12 06:42:56;;;;;;;8.02;5.32;;;5.40;70.10;;;;;;5071908;28;20048;-67
2022/03/12 06:45:24;;;;;;;8.05;5.20;;;5.40;70.00;;;;;;5072313;28;20084;-66
2022/03/12 06:47:52;;;;;;;9.73;5.53;;;5.40;70.50;;;;;;5071774;28;20048;-66
2022/03/12 06:50:22;;;;;;;8.77;6.15;;;5.50;70.10;;;;;;5071141;28;20476;-66
2022/03/12 06:52:50;;;;;;;9.93;5.68;;;5.50;70.20;;;;;;5055339;28;20090;-66
2022/03/12 06:55:18;;;;;;;12.85;5.53;;;5.50;70.00;;;;;;5055648;28;20405;-66
2022/03/12 06:57:47;;;;;;;7.38;5.30;;;5.50;70.20;;;;;;5058467;28;20102;-66
2022/03/12 07:00:16;;;;;;;12.00;6.13;;;5.50;70.30;;;;;;5067669;28;20053;-67
2022/03/12 07:02:44;;;;;;;10.18;5.28;;;5.60;70.40;;;;;;5063463;28;20052;-66
2022/03/12 07:05:12;;;;;;;10.77;5.82;;;5.60;70.80;;;;;;5065464;28;20040;-68
2022/03/12 07:07:39;;;;;;;9.75;5.15;;;5.60;70.80;;;;;;5069978;28;20082;-67
2022/03/12 07:10:08;;;;;;;11.32;5.45;;;5.70;70.40;;;;;;5061674;28;20048;-68
2022/03/12 07:12:36;;;;;;;10.13;5.85;;;5.70;70.40;;;;;;5065703;28;20048;-67
2022/03/12 07:15:05;;;;;;;10.57;5.72;;;6.70;70.80;;;;;;5066102;28;20052;-66
2022/03/12 07:17:32;;;;;;;11.35;5.55;;;5.90;70.10;;;;;;5063237;28;20056;-66
2022/03/12 07:19:59;;;;;;;12.77;5.30;;;6.00;69.80;;;;;;5068639;28;20045;-66
2022/03/12 07:22:26;;;;;;;11.13;5.95;;;6.10;69.70;;;;;;5065174;28;20041;-66
2022/03/12 07:24:53;;;;;;;9.98;5.47;;;6.10;69.50;;;;;;5061555;28;20044;-66
2022/03/12 07:27:20;;;;;;;11.50;5.97;;;6.20;69.50;;;;;;5069531;28;20064;-66
2022/03/12 07:29:47;;;;;;;10.75;5.75;;;6.30;69.50;;;;;;5064097;28;20040;-65
2022/03/12 07:32:15;;;;;;;12.27;6.05;;;6.70;69.20;;;;;;5064753;28;20056;-66
2022/03/12 07:34:42;;;;;;;12.20;5.85;;;7.80;66.90;;;;;;5061063;28;20045;-66
2022/03/12 07:37:11;;;;;;;9.77;5.60;;;9.20;65.30;;;;;;5067842;28;20048;-65
2022/03/12 07:39:38;;;;;;;10.98;6.05;;;10.40;62.10;;;;;;5060271;28;20077;-66
2022/03/12 07:42:06;;;;;;;9.30;6.13;;;10.30;60.70;;;;;;5059727;28;20496;-66
2022/03/12 07:44:33;;;;;;;8.93;5.93;;;11.20;60.10;;;;;;5061149;28;20052;-68
2022/03/12 07:47:00;;;;;;;9.30;5.40;;;11.10;60.00;;;;;;5063158;28;20056;-67
2022/03/12 07:49:28;;;;;;;7.90;5.85;;;11.10;59.20;;;;;;5062448;28;20132;-67
2022/03/12 07:51:55;;;;;;;11.02;6.05;;;11.50;58.40;;;;;;5062858;28;20052;-66
2022/03/12 07:54:23;;;;;;;9.57;6.22;;;11.90;58.20;;;;;;5066070;28;20448;-67
2022/03/12 07:56:50;;;;;;;9.18;5.68;;;12.30;58.40;;;;;;5051009;28;20055;-66
2022/03/12 07:59:18;;;;;;;7.63;5.22;;;12.70;57.50;;;;;;5051942;28;20044;-66
2022/03/12 08:01:45;;;;;;;10.18;5.40;;;13.20;56.30;;;;;;5065245;28;20089;-68
2022/03/12 08:04:13;;;;;;;8.30;4.95;;;13.20;55.90;;;;;;5053586;28;20103;-67
2022/03/12 08:06:42;;;;;;;8.98;5.50;;;13.30;56.10;;;;;;5052860;28;20044;-67
2022/03/12 08:09:09;;;;;;;10.68;6.10;;;13.20;55.90;;;;;;5057781;28;20060;-67
2022/03/12 08:11:36;;;;;;;11.13;6.03;;;13.70;56.80;;;;;;5066654;28;20102;-67
2022/03/12 08:14:08;;;;;;;9.27;6.38;;;13.80;56.40;;;;;;5073073;28;20117;-67
2022/03/12 08:16:37;;;;;;;10.13;6.68;;;13.30;56.00;;;;;;5060091;28;20048;-66
2022/03/12 08:19:05;;;;;;;12.75;6.45;;;13.20;56.60;;;;;;5052024;28;20048;-67
2022/03/12 08:21:33;;;;;;;11.32;6.35;;;13.60;56.80;;;;;;5066674;28;20044;-66
2022/03/12 08:24:02;;;;;;;10.52;6.18;;;14.50;58.70;;;;;;5072252;28;20071;-65
2022/03/12 08:26:30;;;;;;;8.48;6.07;;;15.10;56.20;;;;;;5064932;28;20063;-66
2022/03/12 08:28:57;;;;;;;12.70;6.18;;;15.40;55.50;;;;;;5053170;28;20049;-66
2022/03/12 08:31:24;;;;;;;10.63;6.22;;;15.20;55.00;;;;;;5051318;28;20053;-66
2022/03/12 08:33:51;;;;;;;9.45;5.88;;;15.40;54.40;;;;;;5053098;28;20076;-67
2022/03/12 08:36:18;;;;;;;9.30;5.68;;;15.60;55.10;;;;;;5066486;28;20144;-66
2022/03/12 08:38:45;;;;;;;10.40;6.38;;;15.40;53.60;;;;;;5051589;28;20060;-66
2022/03/12 08:41:15;;;;;;;8.52;6.72;;;15.20;53.80;;;;;;5053153;28;20493;-66
2022/03/12 08:43:42;;;;;;;9.77;6.77;;;15.70;54.20;;;;;;5056581;28;20497;-66
2022/03/12 08:46:09;;;;;;;9.90;6.38;;;16.00;53.80;;;;;;5058977;28;20111;-67
2022/03/12 08:48:36;;;;;;;8.32;6.53;;;16.20;53.90;;;;;;5054780;28;20523;-67
2022/03/12 08:51:04;;;;;;;9.40;6.60;;;16.30;53.90;;;;;;5061540;28;20052;-67
2022/03/12 08:53:31;;;;;;;10.63;6.88;;;16.50;53.60;;;;;;5068099;28;20143;-67
2022/03/12 08:56:00;;;;;;;10.90;6.18;;;16.40;54.30;;;;;;5071436;28;20454;-67
2022/03/12 08:58:29;;;;;;;8.93;6.38;;;16.20;54.00;;;;;;5071216;28;20058;-67
2022/03/12 09:00:56;;;;;;;9.52;6.28;;;15.80;54.70;;;;;;5071991;28;20045;-68
2022/03/12 09:03:23;;;;;;;9.93;6.95;;;15.80;55.20;;;;;;5074568;28;20056;-67
2022/03/12 09:05:50;;;;;;;9.70;6.28;;;15.90;55.40;;;;;;5072983;28;20051;-67
2022/03/12 09:08:18;;;;;;;9.25;6.30;;;15.70;56.00;;;;;;5073185;28;20113;-67
2022/03/12 09:10:46;;;;;;;10.55;6.88;;;15.70;56.40;;;;;;5072345;28;20106;-67
2022/03/12 09:13:13;;;;;;;8.23;6.60;;;16.10;56.60;;;;;;5072923;28;20056;-67
2022/03/12 09:15:42;;;;;;;10.30;6.70;;;16.50;56.60;;;;;;5071911;28;20091;-67
2022/03/12 09:18:09;;;;;;;9.30;6.93;;;16.70;55.90;;;;;;5073122;28;20458;-67
2022/03/12 09:20:43;;;;;;;8.95;7.18;;;16.80;55.40;;;;;;5073738;28;20048;-67
2022/03/12 09:23:10;;;;;;;10.05;7.07;;;17.10;55.60;;;;;;5074564;28;20460;-67
2022/03/12 09:25:37;;;;;;;10.65;7.20;;;17.60;55.60;;;;;;5073243;28;20488;-67
2022/03/12 09:28:05;;;;;;;10.98;6.78;;;18.00;55.40;;;;;;5072251;28;20053;-65
2022/03/12 09:30:32;;;;;;;9.23;7.32;;;18.10;55.00;;;;;;5073012;28;20049;-66
2022/03/12 09:33:00;;;;;;;9.77;6.70;;;17.90;55.50;;;;;;5072217;28;20101;-66
2022/03/12 09:35:28;;;;;;;9.55;6.93;;;18.00;55.70;;;;;;5073953;28;20060;-67
2022/03/12 09:37:55;;;;;;;9.65;7.00;;;18.20;55.70;;;;;;5072802;28;20071;-67
2022/03/12 09:40:22;;;;;;;8.75;6.95;;;18.40;56.10;;;;;;5072186;28;20052;-67
2022/03/12 09:42:49;;;;;;;10.95;7.13;;;18.50;56.10;;;;;;5074063;28;20052;-67
2022/03/12 09:45:16;;;;;;;8.48;6.97;;;18.80;56.20;;;;;;5073907;28;20131;-66
2022/03/12 09:47:43;;;;;;;9.23;6.78;;;18.60;56.10;;;;;;5073067;28;20057;-66
2022/03/12 09:50:12;;;;;;;11.30;7.28;;;18.70;56.80;;;;;;5072375;28;20056;-66
2022/03/12 09:52:40;;;;;;;9.02;6.70;;;18.30;57.20;;;;;;5073841;28;20105;-66
2022/03/12 09:55:07;;;;;;;11.07;6.65;;;18.10;58.00;;;;;;5073107;28;20059;-66
2022/03/12 09:57:34;;;;;;;10.35;6.55;;;17.80;58.80;;;;;;5072818;28;20114;-66
2022/03/12 10:00:03;;;;;;;10.85;7.10;;;17.60;59.00;;;;;;5073344;28;20084;-67
2022/03/12 10:02:30;;;;;;;9.30;7.40;;;17.50;59.60;;;;;;5072030;28;20056;-67
2022/03/12 10:04:57;;;;;;;10.98;6.95;;;17.50;60.00;;;;;;5072122;28;20060;-66
2022/03/12 10:07:26;;;;;;;12.02;7.35;;;17.50;60.30;;;;;;5072258;28;20059;-67
2022/03/12 10:09:52;;;;;;;12.38;7.43;;;17.50;60.60;;;;;;5071630;28;20075;-66
2022/03/12 10:12:20;;;;;;;10.73;6.85;;;17.70;60.50;;;;;;5072086;28;20044;-66
2022/03/12 10:14:48;;;;;;;13.38;7.72;;;17.90;60.50;;;;;;5072208;28;20049;-66
2022/03/12 10:17:15;;;;;;;12.52;7.18;;;18.00;60.50;;;;;;5071680;28;20071;-66
2022/03/12 10:19:44;;;;;;;14.68;6.63;;;17.80;61.00;;;;;;5071958;28;20056;-66
2022/03/12 10:22:11;;;;;;;9.63;7.05;;;18.00;61.10;;;;;;5072476;28;20128;-66
2022/03/12 10:24:40;;;;;;;10.68;6.40;;;18.20;61.20;;;;;;5072192;28;20056;-66
2022/03/12 10:27:07;;;;;;;13.50;6.35;;;17.70;61.60;;;;;;5072198;28;20056;-66
2022/03/12 10:29:34;;;;;;;11.85;6.85;;;17.80;62.30;;;;;;5070933;28;20105;-66
2022/03/12 10:32:20;;;;;;;8.85;6.63;;;17.90;62.90;;;;;;5073223;28;20377;-67
2022/03/12 10:34:52;;;;;;;8.73;5.70;;;18.10;62.90;;;;;;5070802;28;20113;-67
2022/03/12 10:37:21;;;;;;;9.82;7.13;;;18.50;63.60;;;;;;5070692;28;20406;-67
2022/03/12 10:40:03;;;;;;;9.98;6.57;;;18.50;63.80;;;;;;5071468;28;20135;-66
2022/03/12 10:42:31;;;;;;;9.45;6.88;;;18.30;63.60;;;;;;5071612;28;20106;-67
2022/03/12 10:45:07;;;;;;;10.98;7.43;;;18.60;63.60;;;;;;5071252;28;20053;-66
2022/03/12 10:47:40;;;;;;;10.13;7.05;;;19.10;63.50;;;;;;5072370;28;20330;-66
2022/03/12 10:50:10;;;;;;;9.77;6.82;;;19.30;62.90;;;;;;5071905;28;20052;-67
2022/03/12 10:52:41;;;;;;;9.68;6.53;;;18.80;62.90;;;;;;5071575;28;20048;-67
2022/03/12 10:55:16;;;;;;;8.35;6.13;;;18.30;63.80;;;;;;5050742;28;20110;-67
2022/03/12 10:57:57;;;;;;;9.55;6.78;;;17.90;65.20;;;;;;5051275;28;20079;-67
2022/03/12 11:00:25;;;;;;;10.38;6.50;;;17.80;65.60;;;;;;5050134;28;20055;-68
2022/03/12 11:02:57;;;;;;;11.65;6.97;;;17.50;66.10;;;;;;5063374;28;20110;-66
2022/03/12 11:05:29;;;;;;;8.57;6.60;;;17.60;66.50;;;;;;5053987;28;20127;-67
2022/03/12 11:08:16;;;;;;;8.75;6.53;;;17.80;66.50;;;;;;5049939;28;20501;-67
2022/03/12 11:10:52;;;;;;;13.25;6.75;;;17.80;66.90;;;;;;5050325;28;20421;-68
2022/03/12 11:13:39;;;;;;;10.65;6.47;;;18.10;66.80;;;;;;5049395;28;20071;-67
2022/03/12 11:16:15;;;;;;;11.85;7.82;;;18.20;66.30;;;;;;5067871;28;20110;-67
2022/03/12 11:18:56;;;;;;;8.00;6.50;;;18.30;66.90;;;;;;5052759;28;20118;-68
2022/03/12 11:21:27;;;;;;;8.23;6.20;;;18.40;67.10;;;;;;5069791;28;20110;-66
2022/03/12 11:23:54;;;;;;;9.57;5.60;;;18.40;67.90;;;;;;5064501;28;20124;-67
2022/03/12 11:26:24;;;;;;;7.55;5.72;;;18.60;68.20;;;;;;5050218;28;20049;-67
2022/03/12 11:28:56;;;;;;;7.87;5.20;;;19.00;68.60;;;;;;5051793;28;20057;-68
2022/03/12 11:31:39;;;;;;;8.52;5.45;;;19.20;67.60;;;;;;5059596;28;20055;-68
2022/03/12 11:34:24;;;;;;;11.73;4.90;;;19.30;67.70;;;;;;5054859;28;20131;-68
2022/03/12 11:37:06;;;;;;;8.80;4.90;;;19.50;66.90;;;;;;5053859;28;20057;-68
2022/03/12 11:39:39;;;;;;;7.22;5.32;;;19.60;67.10;;;;;;5053615;28;20131;-68
2022/03/12 11:42:11;;;;;;;9.25;4.78;;;19.30;67.10;;;;;;5056606;28;20041;-67
2022/03/12 11:44:44;;;;;;;8.77;5.65;;;19.10;67.70;;;;;;5053790;28;20053;-68
2022/03/12 11:47:12;;;;;;;7.65;4.60;;;18.70;69.30;;;;;;5066417;28;20140;-68
2022/03/12 11:49:40;;;;;;;7.88;5.20;;;18.50;68.70;;;;;;5055001;28;20467;-67
2022/03/12 11:52:07;;;;;;;7.28;5.18;;;18.50;68.70;;;;;;5054536;28;20056;-68
2022/03/12 11:54:35;;;;;;;8.20;5.28;;;18.70;68.70;;;;;;5054484;28;20110;-68
2022/03/12 11:57:03;;;;;;;8.63;5.00;;;18.70;69.00;;;;;;5062189;28;20048;-68
2022/03/12 11:59:31;;;;;;;8.75;5.10;;;18.70;69.10;;;;;;5058549;28;20044;-68
2022/03/12 12:02:05;;;;;;;8.85;5.20;;;18.50;69.30;;;;;;5057787;28;20053;-68
2022/03/12 12:04:35;;;;;;;7.95;4.85;;;19.00;69.10;;;;;;5055232;28;20056;-68
2022/03/12 12:07:02;;;;;;;7.07;5.13;;;19.20;68.20;;;;;;5053328;28;20048;-68
2022/03/12 12:09:30;;;;;;;8.52;5.07;;;19.30;67.90;;;;;;5052370;28;20049;-63
2022/03/12 12:11:58;;;;;;;6.03;4.25;;;19.20;67.70;;;;;;5055395;28;20127;-63
2022/03/12 12:14:25;;;;;;;8.02;4.85;;;19.10;67.20;;;;;;5052966;28;20140;-64
2022/03/12 12:16:58;;;;;;;8.82;5.05;;;19.20;66.80;;;;;;5053653;28;20110;-64
2022/03/12 12:19:27;;;;;;;7.30;4.95;;;19.30;67.00;;;;;;5071498;28;20139;-63
2022/03/12 12:21:54;;;;;;;7.45;4.90;;;19.40;67.20;;;;;;5053715;28;20045;-64
2022/03/12 12:24:26;;;;;;;7.60;5.45;;;19.20;67.20;;;;;;5053238;28;20053;-66
2022/03/12 12:27:01;;;;;;;6.60;4.43;;;19.10;67.70;;;;;;5070623;28;20106;-66
2022/03/12 12:29:48;;;;;;;9.25;4.45;;;19.00;67.30;;;;;;5071823;28;20048;-66
2022/03/12 12:32:18;;;;;;;7.07;4.45;;;19.00;67.40;;;;;;5055470;28;20052;-66
2022/03/12 12:35:13;;;;;;;6.97;4.88;;;18.80;68.00;;;;;;5052788;28;20053;-66
2022/03/12 12:37:45;;;;;;;9.07;4.85;;;18.80;68.40;;;;;;5051902;28;20136;-66
2022/03/12 12:40:29;;;;;;;7.35;4.60;;;18.70;69.30;;;;;;5052813;28;20106;-65
2022/03/12 12:42:58;;;;;;;7.25;4.43;;;18.80;69.10;;;;;;5054086;28;20081;-66
2022/03/12 12:45:26;;;;;;;7.80;4.78;;;19.00;68.80;;;;;;5053887;28;20059;-66
2022/03/12 12:48:09;;;;;;;7.38;4.15;;;18.90;68.30;;;;;;5053828;28;20080;-66
2022/03/12 12:50:37;;;;;;;5.90;4.35;;;18.60;68.50;;;;;;5059662;28;20099;-66
2022/03/12 12:53:16;;;;;;;8.20;4.68;;;18.50;68.80;;;;;;5053199;28;20098;-65
2022/03/12 12:55:45;;;;;;;7.00;4.95;;;18.40;69.10;;;;;;5052484;28;20057;-65